Time;durP1;ratioP1;P1;durP2;ratioP2;P2;SDS_P1;SDS_P2;PMS_P1;PMS_P2;Temp;Humidity;BMP_temperature;BMP_pressure;BME280_temperature;BME280_humidity;BME280_pressure;Samples;Min_cycle;Max_cycle;Signal;HPM_P1;HPM_P2
2022/01/14 00:07:33;;;;;;;11.13;6.07;;;;;;;;;;20921368;28;20141;-54
2022/01/14 00:17:35;;;;;;;11.75;5.50;;;;;;;;;;20920980;28;20045;-54
2022/01/14 00:37:57;;;;;;;6.88;4.97;;;;;;;;;;20919239;28;20053;-54
2022/01/14 00:48:00;;;;;;;10.52;5.50;;;;;;;;;;20919139;28;20048;-55
2022/01/14 01:08:13;;;;;;;8.27;6.18;;;;;;;;;;20916933;28;20060;-59
2022/01/14 01:18:15;;;;;;;8.95;4.57;;;;;;;;;;20915644;28;20408;-55
2022/01/14 01:28:17;;;;;;;7.95;4.75;;;;;;;;;;20914966;28;20091;-55
2022/01/14 01:38:19;;;;;;;6.43;4.50;;;;;;;;;;20913581;28;20179;-56
2022/01/14 01:48:21;;;;;;;7.90;4.47;;;;;;;;;;20914439;28;20048;-56
2022/01/14 01:58:23;;;;;;;7.75;4.63;;;;;;;;;;20913317;28;20059;-55
2022/01/14 02:08:25;;;;;;;6.28;4.70;;;;;;;;;;20913108;28;20408;-54
2022/01/14 02:28:36;;;;;;;8.60;4.25;;;;;;;;;;20912031;28;20049;-54
2022/01/14 02:38:38;;;;;;;9.00;4.53;;;;;;;;;;20911320;28;20053;-54
2022/01/14 02:48:41;;;;;;;13.38;7.55;;;;;;;;;;20923605;28;20098;-56
2022/01/14 02:58:48;;;;;;;7.97;4.82;;;;;;;;;;20926871;28;20049;-56
2022/01/14 03:08:50;;;;;;;7.88;4.85;;;;;;;;;;20926866;28;20057;-56
2022/01/14 03:18:55;;;;;;;7.63;5.10;;;;;;;;;;20925432;28;20053;-54
2022/01/14 03:29:01;;;;;;;8.85;5.22;;;;;;;;;;20926540;28;20053;-57
2022/01/14 03:39:06;;;;;;;;;;;;;;;;;;20924094;28;20056;-56
2022/01/14 03:49:11;;;;;;;9.27;5.25;;;;;;;;;;20923742;28;19927;-56
2022/01/14 03:59:14;;;;;;;11.15;6.43;;;;;;;;;;20921207;28;20061;-56
2022/01/14 04:09:17;;;;;;;10.95;4.82;;;;;;;;;;20922211;28;20059;-58
2022/01/14 04:19:20;;;;;;;6.57;5.07;;;;;;;;;;20921311;28;20049;-57
2022/01/14 04:29:24;;;;;;;7.72;4.97;;;;;;;;;;20921790;28;20053;-57
2022/01/14 04:39:26;;;;;;;8.18;4.82;;;;;;;;;;20919766;28;20157;-57
2022/01/14 04:49:30;;;;;;;7.32;4.97;;;;;;;;;;20918921;28;20504;-57
2022/01/14 04:59:32;;;;;;;6.65;4.45;;;;;;;;;;20917878;28;20052;-57
2022/01/14 05:09:39;;;;;;;8.80;4.85;;;;;;;;;;20916563;28;20053;-57
2022/01/14 05:19:42;;;;;;;6.78;4.85;;;;;;;;;;20916802;28;20044;-57
2022/01/14 05:29:44;;;;;;;7.38;4.95;;;;;;;;;;20915895;28;20061;-57
2022/01/14 05:39:47;;;;;;;9.13;5.07;;;;;;;;;;20914370;28;20098;-56
2022/01/14 05:49:49;;;;;;;8.13;4.18;;;;;;;;;;20914620;28;20056;-56
2022/01/14 05:59:51;;;;;;;8.00;4.25;;;;;;;;;;20913312;28;20136;-56
2022/01/14 06:09:53;;;;;;;7.40;4.10;;;;;;;;;;20912683;28;20059;-56
2022/01/14 06:19:55;;;;;;;8.10;6.05;;;;;;;;;;20911860;28;20413;-57
2022/01/14 06:29:58;;;;;;;11.63;6.72;;;;;;;;;;20912290;28;20128;-57
2022/01/14 06:40:00;;;;;;;11.10;5.60;;;;;;;;;;20911367;28;20101;-57
2022/01/14 06:50:02;;;;;;;7.63;4.60;;;;;;;;;;20910378;28;20091;-57
2022/01/14 07:00:06;;;;;;;14.57;8.13;;;;;;;;;;20910683;28;20049;-58
2022/01/14 07:10:10;;;;;;;12.77;7.15;;;;;;;;;;20910042;28;20053;-57
2022/01/14 07:20:15;;;;;;;15.95;8.70;;;;;;;;;;20909701;28;20049;-58
2022/01/14 07:30:19;;;;;;;9.85;5.68;;;;;;;;;;20912513;28;20455;-58
2022/01/14 07:40:23;;;;;;;8.43;5.97;;;;;;;;;;20922773;28;20060;-57
2022/01/14 07:50:26;;;;;;;13.60;6.70;;;;;;;;;;20922895;28;20060;-58
2022/01/14 08:00:33;;;;;;;11.32;5.95;;;;;;;;;;20922400;28;20483;-56
2022/01/14 08:10:37;;;;;;;13.40;6.57;;;;;;;;;;20922438;28;20116;-58
2022/01/14 08:20:59;;;;;;;8.25;5.38;;;;;;;;;;20921025;28;20493;-56
2022/01/14 08:31:07;;;;;;;12.27;6.13;;;;;;;;;;20919214;28;20073;-57
2022/01/14 08:41:11;;;;;;;14.48;7.75;;;;;;;;;;20918152;28;20053;-59
2022/01/14 08:51:18;;;;;;;21.70;10.35;;;;;;;;;;20918423;28;20135;-58
2022/01/14 09:01:24;;;;;;;13.98;5.57;;;;;;;;;;20894517;28;20077;-60
2022/01/14 09:11:30;;;;;;;12.38;7.35;;;;;;;;;;20860599;28;20057;-54
2022/01/14 09:21:36;;;;;;;12.57;6.90;;;;;;;;;;20834519;28;20049;-55
2022/01/14 09:31:39;;;;;;;12.05;7.57;;;;;;;;;;20832077;28;20049;-58
2022/01/14 09:41:42;;;;;;;20.73;11.52;;;;;;;;;;20865035;28;20436;-52
2022/01/14 09:51:45;;;;;;;26.67;14.00;;;;;;;;;;20911514;28;20497;-54
2022/01/14 10:01:48;;;;;;;27.83;13.45;;;;;;;;;;20911797;28;20057;-53
2022/01/14 10:12:00;;;;;;;22.60;13.38;;;;;;;;;;20908437;28;20049;-52
2022/01/14 10:22:03;;;;;;;10.27;4.57;;;;;;;;;;20910750;28;20115;-51
2022/01/14 10:32:07;;;;;;;10.15;3.72;;;;;;;;;;20898029;28;20050;-54
2022/01/14 10:42:27;;;;;;;5.85;2.67;;;;;;;;;;20899677;28;20400;-53
2022/01/14 10:52:31;;;;;;;8.90;3.88;;;;;;;;;;20893430;28;20056;-52
2022/01/14 11:02:34;;;;;;;8.70;3.30;;;;;;;;;;20831052;28;20160;-54
2022/01/14 11:12:37;;;;;;;9.05;3.92;;;;;;;;;;20909458;28;20110;-52
2022/01/14 11:33:02;;;;;;;6.30;3.38;;;;;;;;;;20870819;28;20127;-51
2022/01/14 11:43:06;;;;;;;5.40;2.95;;;;;;;;;;20876391;28;20080;-53
2022/01/14 11:53:29;;;;;;;5.53;2.70;;;;;;;;;;20921045;28;20115;-56
2022/01/14 12:03:31;;;;;;;5.93;3.00;;;;;;;;;;20880475;28;20136;-54
2022/01/14 12:13:48;;;;;;;5.30;2.97;;;;;;;;;;20836650;28;20049;-55
2022/01/14 12:23:50;;;;;;;6.13;2.38;;;;;;;;;;20917174;28;20068;-51
2022/01/14 12:33:52;;;;;;;7.78;2.85;;;;;;;;;;20874264;28;20061;-55
2022/01/14 12:43:57;;;;;;;8.13;2.80;;;;;;;;;;20835277;28;20046;-53
2022/01/14 12:54:01;;;;;;;5.10;2.67;;;;;;;;;;20851280;28;20497;-57
2022/01/14 13:04:05;;;;;;;5.93;2.80;;;;;;;;;;20915885;28;20053;-59
2022/01/14 13:14:09;;;;;;;8.43;3.17;;;;;;;;;;20896185;28;20128;-54
2022/01/14 13:24:20;;;;;;;6.60;2.60;;;;;;;;;;20832988;28;20455;-56
2022/01/14 13:34:23;;;;;;;6.50;3.53;;;;;;;;;;20831263;28;20115;-57
2022/01/14 13:44:31;;;;;;;6.95;3.05;;;;;;;;;;20832394;28;20479;-56
2022/01/14 13:54:33;;;;;;;6.30;2.70;;;;;;;;;;20830925;28;20053;-58
2022/01/14 14:04:44;;;;;;;6.40;2.75;;;;;;;;;;20830463;28;20072;-58
2022/01/14 14:25:18;;;;;;;7.03;3.23;;;;;;;;;;20828609;28;20072;-56
2022/01/14 14:35:21;;;;;;;7.78;3.17;;;;;;;;;;20828621;28;20042;-57
2022/01/14 14:45:23;;;;;;;7.05;2.45;;;;;;;;;;20840707;28;20093;-58
2022/01/14 14:55:26;;;;;;;6.28;2.30;;;;;;;;;;20844509;28;20058;-57
2022/01/14 15:05:27;;;;;;;6.38;2.28;;;;;;;;;;20842980;28;20092;-57
2022/01/14 15:25:54;;;;;;;10.10;2.80;;;;;;;;;;20670320;28;20169;-56
2022/01/14 15:35:56;;;;;;;8.88;3.17;;;;;;;;;;20669836;28;20138;-59
2022/01/14 15:45:59;;;;;;;11.13;6.80;;;;;;;;;;20669027;28;20118;-56
2022/01/14 15:56:01;;;;;;;5.95;2.90;;;;;;;;;;20699634;28;20056;-57
2022/01/14 16:06:03;;;;;;;5.32;2.70;;;;;;;;;;20839275;28;20060;-58
2022/01/14 16:16:06;;;;;;;4.50;2.42;;;;;;;;;;20837940;28;20042;-58
2022/01/14 16:26:07;;;;;;;5.78;2.22;;;;;;;;;;20836837;28;20084;-56
2022/01/14 16:36:09;;;;;;;4.85;2.10;;;;;;;;;;20835319;28;20077;-56
2022/01/14 16:46:11;;;;;;;20.20;10.35;;;;;;;;;;20836419;28;20087;-62
2022/01/14 16:56:12;;;;;;;10.63;4.57;;;;;;;;;;20835543;28;20490;-64
2022/01/14 17:06:14;;;;;;;5.97;2.80;;;;;;;;;;20835414;28;20501;-62
2022/01/14 17:16:16;;;;;;;6.28;2.95;;;;;;;;;;20833223;28;20041;-57
2022/01/14 17:26:18;;;;;;;9.35;3.30;;;;;;;;;;20834268;28;20494;-66
2022/01/14 17:36:20;;;;;;;6.60;3.00;;;;;;;;;;20834430;28;20084;-66
2022/01/14 17:46:22;;;;;;;7.15;3.60;;;;;;;;;;20832554;28;20077;-63
2022/01/14 17:56:25;;;;;;;7.80;3.13;;;;;;;;;;20830125;28;20065;-62
2022/01/14 18:06:27;;;;;;;10.02;4.20;;;;;;;;;;20830073;28;20141;-60
2022/01/14 18:16:29;;;;;;;9.23;3.90;;;;;;;;;;20829954;28;20096;-56
2022/01/14 18:26:31;;;;;;;6.18;3.40;;;;;;;;;;20829664;28;20052;-54
2022/01/14 18:36:32;;;;;;;11.73;4.10;;;;;;;;;;20828766;28;20410;-58
2022/01/14 18:46:34;;;;;;;9.23;3.50;;;;;;;;;;20828650;28;20065;-57
2022/01/14 18:56:36;;;;;;;15.25;8.55;;;;;;;;;;20828220;28;20115;-57
2022/01/14 19:06:38;;;;;;;10.73;5.18;;;;;;;;;;20828366;28;20057;-61
2022/01/14 19:16:42;;;;;;;11.30;4.10;;;;;;;;;;20827158;28;20053;-55
2022/01/14 19:26:44;;;;;;;8.50;4.57;;;;;;;;;;20830817;28;20064;-56
2022/01/14 19:36:46;;;;;;;8.48;4.30;;;;;;;;;;20841099;28;20515;-58
2022/01/14 19:46:47;;;;;;;11.32;4.90;;;;;;;;;;20841526;28;20049;-58
2022/01/14 19:56:49;;;;;;;16.17;5.57;;;;;;;;;;20839460;28;20053;-56
2022/01/14 20:06:52;;;;;;;9.45;4.50;;;;;;;;;;20839013;28;20050;-61
2022/01/14 20:16:53;;;;;;;10.15;5.18;;;;;;;;;;20838180;28;20572;-61
2022/01/14 20:26:55;;;;;;;16.65;8.05;;;;;;;;;;20836503;28;20053;-61
2022/01/14 20:36:57;;;;;;;20.88;7.15;;;;;;;;;;20835664;28;20046;-62
2022/01/14 20:46:58;;;;;;;12.30;5.95;;;;;;;;;;20835905;28;20141;-60
2022/01/14 20:57:01;;;;;;;8.80;4.47;;;;;;;;;;20835354;28;20489;-60
2022/01/14 21:07:03;;;;;;;8.30;4.60;;;;;;;;;;20834210;28;20053;-61
2022/01/14 21:17:05;;;;;;;8.45;4.60;;;;;;;;;;20833873;28;20049;-62
2022/01/14 21:27:07;;;;;;;11.35;6.18;;;;;;;;;;20831513;28;20053;-61
2022/01/14 21:37:11;;;;;;;8.07;4.60;;;;;;;;;;20832470;28;20053;-61
2022/01/14 21:47:12;;;;;;;6.50;4.60;;;;;;;;;;20830717;28;20056;-60
2022/01/14 21:57:14;;;;;;;7.40;4.95;;;;;;;;;;20830899;28;20084;-61
2022/01/14 22:07:17;;;;;;;6.43;5.18;;;;;;;;;;20830541;28;20064;-63
2022/01/14 22:17:18;;;;;;;7.43;5.40;;;;;;;;;;20831581;28;20128;-61
2022/01/14 22:27:21;;;;;;;11.50;6.07;;;;;;;;;;20831392;28;20401;-61
2022/01/14 22:37:22;;;;;;;19.73;8.48;;;;;;;;;;20829371;28;20046;-62
2022/01/14 22:47:24;;;;;;;12.35;6.40;;;;;;;;;;20828881;28;20410;-61
2022/01/14 22:57:28;;;;;;;16.33;8.05;;;;;;;;;;20828378;28;20046;-61
2022/01/14 23:07:30;;;;;;;8.45;5.15;;;;;;;;;;20842194;28;20060;-61
2022/01/14 23:17:31;;;;;;;15.85;7.63;;;;;;;;;;20842730;28;20139;-62
2022/01/14 23:27:34;;;;;;;13.35;6.80;;;;;;;;;;20842188;28;20064;-62
2022/01/14 23:37:36;;;;;;;13.40;6.63;;;;;;;;;;20841675;28;20413;-61
2022/01/14 23:47:38;;;;;;;11.52;6.82;;;;;;;;;;20841015;28;20060;-61
2022/01/14 23:57:40;;;;;;;10.60;6.07;;;;;;;;;;20839762;28;20524;-61
